createdAt,value
2019-03-18T00:01:46.235Z,84.19
2019-03-18T00:04:16.309Z,84.50
2019-03-18T00:06:46.583Z,85.01
2019-03-18T00:09:16.444Z,84.12
2019-03-18T00:11:46.509Z,84.55
2019-03-18T00:14:16.805Z,84.70
2019-03-18T00:16:46.656Z,85.08
2019-03-18T00:19:16.529Z,85.32
2019-03-18T00:21:46.379Z,85.08
2019-03-18T00:24:16.317Z,84.75
2019-03-18T00:26:47.332Z,84.28
2019-03-18T00:29:17.252Z,84.33
2019-03-18T00:31:47.118Z,83.91
2019-03-18T00:34:17.066Z,83.76
2019-03-18T00:36:46.865Z,83.75
2019-03-18T00:39:16.830Z,83.80
2019-03-18T00:41:46.633Z,83.47
2019-03-18T00:44:16.463Z,83.86
2019-03-18T00:46:48.206Z,83.83
2019-03-18T00:49:18.151Z,83.11
2019-03-18T00:51:48.032Z,83.43
2019-03-18T00:54:17.894Z,83.81
2019-03-18T00:56:48.142Z,83.97
2019-03-18T00:59:18.263Z,83.59
2019-03-18T01:01:48.204Z,83.91
2019-03-18T01:04:18.204Z,84.34
2019-03-18T01:06:48.416Z,84.06
2019-03-18T01:09:18.219Z,83.70
2019-03-18T01:11:48.019Z,84.61
2019-03-18T01:14:17.805Z,84.39
2019-03-18T01:16:47.607Z,84.59
2019-03-18T01:19:17.386Z,83.85
2019-03-18T01:21:47.291Z,84.60
2019-03-18T01:24:17.805Z,84.20
2019-03-18T01:26:47.762Z,84.22
2019-03-18T01:29:17.631Z,84.06
2019-03-18T01:31:47.457Z,84.08
2019-03-18T01:34:17.364Z,83.84
2019-03-18T01:36:47.316Z,83.94
2019-03-18T01:39:17.508Z,84.06
2019-03-18T01:41:47.676Z,84.42
2019-03-18T01:44:19.208Z,83.89
2019-03-18T01:46:49.067Z,83.40
2019-03-18T01:49:18.933Z,83.58
2019-03-18T01:51:48.780Z,83.49
2019-03-18T01:54:18.746Z,83.55
2019-03-18T01:56:48.594Z,83.89
2019-03-18T01:59:18.384Z,83.62
2019-03-18T02:01:48.221Z,83.36
2019-03-18T02:04:18.248Z,83.61
2019-03-18T02:06:48.029Z,83.66
2019-03-18T02:09:18.003Z,83.71
2019-03-18T02:11:47.938Z,83.25
2019-03-18T02:14:17.818Z,83.31
2019-03-18T02:16:47.687Z,83.64
2019-03-18T02:19:17.594Z,83.23
2019-03-18T02:21:47.402Z,83.87
2019-03-18T02:24:18.347Z,83.80
2019-03-18T02:26:48.554Z,83.83
2019-03-18T02:29:18.420Z,83.34
2019-03-18T02:31:49.276Z,83.56
2019-03-18T02:34:19.255Z,83.49
2019-03-18T02:36:49.453Z,82.82
2019-03-18T02:39:19.261Z,82.99
2019-03-18T02:41:49.458Z,83.52
2019-03-18T02:44:19.744Z,83.36
2019-03-18T02:46:49.527Z,83.19
2019-03-18T02:49:19.397Z,83.01
2019-03-18T02:51:52.727Z,83.37
2019-03-18T02:54:20.795Z,82.66
2019-03-18T02:56:50.792Z,82.82
2019-03-18T02:59:20.742Z,83.04
2019-03-18T03:01:51.205Z,82.62
2019-03-18T03:04:21.516Z,83.08
2019-03-18T03:06:51.978Z,83.30
2019-03-18T03:09:21.926Z,83.14
2019-03-18T03:11:51.844Z,83.46
2019-03-18T03:14:21.726Z,83.39
2019-03-18T03:16:51.940Z,83.20
2019-03-18T03:19:22.176Z,83.18
2019-03-18T03:21:52.096Z,83.30
2019-03-18T03:24:22.239Z,83.15
2019-03-18T03:26:52.184Z,83.46
2019-03-18T03:29:22.004Z,83.50
2019-03-18T03:31:52.081Z,83.74
2019-03-18T03:34:22.021Z,83.71
2019-03-18T03:36:52.597Z,84.05
2019-03-18T03:39:22.711Z,83.86
2019-03-18T03:41:52.583Z,83.60
2019-03-18T03:44:22.352Z,83.68
2019-03-18T03:46:52.239Z,83.94
2019-03-18T03:49:22.083Z,84.01
2019-03-18T03:51:53.115Z,83.69
2019-03-18T03:54:22.995Z,84.19
2019-03-18T03:56:52.915Z,83.91
2019-03-18T03:59:22.931Z,83.98
2019-03-18T04:01:53.612Z,84.12
2019-03-18T04:04:23.535Z,84.52
2019-03-18T04:06:53.681Z,84.37
2019-03-18T04:09:23.607Z,84.83
2019-03-18T04:11:53.870Z,85.47
2019-03-18T04:14:23.768Z,86.09
2019-03-18T04:17:01.891Z,86.94
2019-03-18T04:19:25.377Z,87.62
2019-03-18T04:21:55.675Z,88.28
2019-03-18T04:24:25.898Z,89.23
2019-03-18T04:26:55.747Z,89.54
2019-03-18T04:29:26.679Z,89.87
2019-03-18T04:31:56.622Z,89.76
2019-03-18T04:34:26.512Z,90.27
2019-03-18T04:36:58.195Z,90.52
2019-03-18T04:39:28.458Z,90.98
2019-03-18T04:41:58.383Z,91.20
2019-03-18T04:44:28.227Z,91.44
2019-03-18T04:46:58.106Z,91.96
2019-03-18T04:49:27.973Z,92.55
2019-03-18T04:51:57.920Z,93.14
2019-03-18T04:54:27.800Z,93.46
2019-03-18T04:56:58.016Z,94.05
2019-03-18T04:59:28.616Z,93.91
2019-03-18T05:01:58.566Z,93.25
2019-03-18T05:04:28.784Z,93.61
2019-03-18T05:06:58.663Z,93.52
2019-03-18T05:09:28.718Z,93.17
2019-03-18T05:11:58.633Z,93.75
2019-03-18T05:14:28.393Z,93.79
2019-03-18T05:16:58.685Z,93.72
2019-03-18T05:19:28.651Z,93.75
2019-03-18T05:21:59.169Z,93.91
2019-03-18T05:24:29.512Z,94.16
2019-03-18T05:26:59.405Z,93.92
2019-03-18T05:29:29.922Z,94.01
2019-03-18T05:31:59.797Z,93.25
2019-03-18T05:34:29.735Z,92.95
2019-03-18T05:36:59.597Z,92.81
2019-03-18T05:39:29.450Z,92.37
2019-03-18T05:41:59.351Z,92.98
2019-03-18T05:44:29.135Z,93.37
2019-03-18T05:46:59.229Z,92.61
2019-03-18T05:49:29.116Z,92.57
2019-03-18T05:52:00.130Z,92.67
2019-03-18T05:54:30.042Z,92.58
2019-03-18T05:56:59.952Z,92.58
2019-03-18T05:59:30.266Z,92.47
2019-03-18T06:02:00.230Z,92.54
2019-03-18T06:04:30.191Z,92.55
2019-03-18T06:07:00.078Z,92.26
2019-03-18T06:09:30.709Z,92.34
2019-03-18T06:12:00.938Z,91.84
2019-03-18T06:14:31.062Z,91.42
2019-03-18T06:17:01.169Z,91.68
2019-03-18T06:19:31.406Z,91.68
2019-03-18T06:22:01.503Z,91.51
2019-03-18T06:24:31.896Z,91.53
2019-03-18T06:27:02.045Z,91.99
2019-03-18T06:29:32.283Z,91.91
2019-03-18T06:32:02.334Z,91.86
2019-03-18T06:34:33.313Z,91.61
2019-03-18T06:37:03.147Z,91.36
2019-03-18T06:39:33.489Z,91.53
2019-03-18T06:42:03.771Z,91.33
2019-03-18T06:44:33.832Z,91.56
2019-03-18T06:47:03.746Z,91.40
2019-03-18T06:49:33.590Z,91.60
2019-03-18T06:52:03.620Z,91.58
2019-03-18T06:54:33.380Z,91.19
2019-03-18T06:57:03.358Z,90.95
2019-03-18T06:59:33.145Z,90.75
2019-03-18T07:02:03.139Z,91.03
2019-03-18T07:04:33.022Z,90.86
2019-03-18T07:07:03.136Z,90.37
2019-03-18T07:09:33.245Z,90.65
2019-03-18T07:12:03.255Z,90.37
2019-03-18T07:14:33.441Z,90.77
2019-03-18T07:17:04.175Z,90.74
2019-03-18T07:19:34.030Z,90.78
2019-03-18T07:22:04.318Z,91.01
2019-03-18T07:24:34.924Z,90.87
2019-03-18T07:27:05.121Z,90.96
2019-03-18T07:29:35.109Z,90.66
2019-03-18T07:32:05.478Z,90.14
2019-03-18T07:34:35.759Z,90.30
2019-03-18T07:37:06.161Z,90.25
2019-03-18T07:39:36.076Z,89.95
2019-03-18T07:42:06.014Z,89.91
2019-03-18T07:44:36.325Z,90.14
2019-03-18T07:47:06.279Z,90.42
2019-03-18T07:49:36.421Z,90.50
2019-03-18T07:52:06.825Z,90.37
2019-03-18T07:54:37.139Z,90.62
2019-03-18T07:57:07.089Z,90.76
2019-03-18T07:59:38.328Z,90.82
2019-03-18T08:02:08.279Z,90.38
2019-03-18T08:04:38.382Z,90.86
2019-03-18T08:07:08.280Z,90.74
2019-03-18T08:09:38.909Z,90.64
2019-03-18T08:12:09.234Z,90.74
2019-03-18T08:14:39.483Z,90.82
2019-03-18T08:17:09.352Z,90.71
2019-03-18T08:19:39.180Z,90.08
2019-03-18T08:22:09.165Z,90.60
2019-03-18T08:24:39.009Z,90.52
2019-03-18T08:27:08.961Z,89.53
2019-03-18T08:29:39.231Z,89.24
2019-03-18T08:32:11.660Z,89.23
2019-03-18T08:34:40.840Z,89.26
2019-03-18T08:37:10.752Z,88.39
2019-03-18T08:39:41.034Z,88.72
2019-03-18T08:42:11.653Z,88.34
2019-03-18T08:44:41.531Z,88.18
2019-03-18T08:47:11.464Z,88.81
2019-03-18T08:49:41.409Z,88.03
2019-03-18T08:52:11.716Z,86.86
2019-03-18T08:54:41.719Z,86.67
2019-03-18T08:57:11.579Z,86.31
2019-03-18T08:59:41.426Z,86.15
2019-03-18T09:02:11.290Z,86.54
2019-03-18T09:04:41.179Z,86.86
2019-03-18T09:07:11.112Z,86.45
2019-03-18T09:09:41.529Z,83.97
2019-03-18T09:12:11.374Z,84.18
2019-03-18T09:14:42.494Z,83.92
2019-03-18T09:17:12.375Z,83.43
2019-03-18T09:19:42.230Z,83.26
2019-03-18T09:22:12.094Z,83.16
2019-03-18T09:24:42.042Z,82.84
2019-03-18T09:27:12.240Z,83.22
2019-03-18T09:29:42.702Z,82.85
2019-03-18T09:32:12.574Z,81.97
2019-03-18T09:34:42.773Z,81.31
2019-03-18T09:37:13.693Z,81.39
2019-03-18T09:39:43.592Z,81.66
2019-03-18T09:42:13.584Z,80.97
2019-03-18T09:44:44.440Z,81.31
2019-03-18T09:47:14.389Z,80.71
2019-03-18T09:49:44.569Z,80.75
2019-03-18T09:52:14.558Z,79.43
2019-03-18T09:54:44.341Z,79.80
2019-03-18T09:57:25.481Z,79.52
2019-03-18T09:59:45.917Z,78.80
2019-03-18T10:02:15.894Z,80.48
2019-03-18T10:04:45.879Z,80.28
2019-03-18T10:07:15.768Z,78.38
2019-03-18T10:09:45.666Z,77.77
2019-03-18T10:12:15.619Z,78.00
2019-03-18T10:14:45.605Z,78.53
2019-03-18T10:17:15.925Z,76.71
2019-03-18T10:19:45.907Z,76.26
2019-03-18T10:22:15.903Z,75.92
2019-03-18T10:24:45.887Z,74.15
2019-03-18T10:27:17.565Z,73.95
2019-03-18T10:29:47.763Z,74.73
2019-03-18T10:32:17.707Z,73.38
2019-03-18T10:34:47.603Z,73.77
2019-03-18T10:37:17.945Z,72.42
2019-03-18T10:39:47.981Z,72.01
2019-03-18T10:42:17.940Z,71.60
2019-03-18T10:44:47.882Z,71.83
2019-03-18T10:47:17.837Z,71.80
2019-03-18T10:49:47.966Z,70.34
2019-03-18T10:52:17.927Z,67.63
2019-03-18T10:54:48.091Z,66.21
2019-03-18T10:57:18.076Z,65.50
2019-03-18T10:59:48.046Z,67.07
2019-03-18T11:02:18.377Z,67.14
2019-03-18T11:04:48.270Z,67.23
2019-03-18T11:07:18.447Z,68.04
2019-03-18T11:09:48.731Z,65.55
2019-03-18T11:12:18.578Z,66.86
2019-03-18T11:14:48.455Z,67.61
2019-03-18T11:17:18.416Z,68.00
2019-03-18T11:19:57.956Z,69.15
2019-03-18T11:22:20.288Z,69.00
2019-03-18T11:24:50.235Z,67.64
2019-03-18T11:27:20.116Z,66.97
2019-03-18T11:29:50.062Z,66.73
2019-03-18T11:32:19.947Z,66.17
2019-03-18T11:34:49.761Z,66.05
2019-03-18T11:37:19.705Z,63.63
2019-03-18T11:39:49.663Z,64.25
2019-03-18T11:42:19.465Z,64.39
2019-03-18T11:44:49.370Z,64.17
2019-03-18T11:47:19.241Z,65.30
2019-03-18T11:49:49.227Z,66.65
2019-03-18T11:52:19.142Z,67.54
2019-03-18T11:54:49.464Z,69.67
2019-03-18T11:57:19.405Z,74.56
2019-03-18T11:59:49.303Z,78.07
2019-03-18T12:02:27.510Z,79.66
2019-03-18T12:04:50.789Z,81.29
2019-03-18T12:07:20.719Z,84.03
2019-03-18T12:09:50.664Z,86.63
2019-03-18T12:12:20.623Z,88.45
2019-03-18T12:14:50.482Z,86.71
2019-03-18T12:17:21.557Z,84.78
2019-03-18T12:19:51.762Z,84.96
2019-03-18T12:22:21.660Z,86.06
2019-03-18T12:24:51.624Z,84.07
2019-03-18T12:27:21.941Z,82.40
2019-03-18T12:29:51.912Z,81.33
2019-03-18T12:32:21.860Z,80.65
2019-03-18T12:34:51.729Z,80.43
2019-03-18T12:37:21.918Z,79.26
2019-03-18T12:39:51.854Z,77.75
2019-03-18T12:42:21.839Z,75.49
2019-03-18T12:44:53.116Z,75.15
2019-03-18T12:47:23.115Z,75.46
2019-03-18T12:49:53.300Z,69.53
2019-03-18T12:52:24.116Z,68.05
2019-03-18T12:54:54.355Z,68.74
2019-03-18T12:57:24.212Z,65.01
2019-03-18T12:59:54.171Z,65.55
2019-03-18T13:02:24.444Z,63.81
2019-03-18T13:04:54.794Z,63.08
2019-03-18T13:07:24.764Z,63.50
2019-03-18T13:09:54.702Z,63.17
2019-03-18T13:12:24.907Z,61.41
2019-03-18T13:14:54.779Z,63.27
2019-03-18T13:17:24.728Z,63.63
2019-03-18T13:19:54.574Z,64.80
2019-03-18T13:22:24.495Z,65.81
2019-03-18T13:24:54.307Z,69.45
2019-03-18T13:27:24.071Z,69.43
2019-03-18T13:29:54.244Z,69.08
2019-03-18T13:32:24.029Z,70.10
2019-03-18T13:34:53.851Z,70.14
2019-03-18T13:37:23.887Z,70.86
2019-03-18T13:39:53.680Z,71.13
2019-03-18T13:42:23.648Z,70.64
2019-03-18T13:44:53.585Z,69.09
2019-03-18T13:47:23.788Z,69.83
2019-03-18T13:49:53.723Z,70.35
2019-03-18T13:52:23.744Z,70.31
2019-03-18T13:54:53.682Z,70.78
2019-03-18T13:57:23.615Z,69.03
2019-03-18T13:59:53.525Z,70.41
2019-03-18T14:02:24.086Z,71.37
2019-03-18T14:04:53.923Z,71.48
2019-03-18T14:07:23.849Z,72.40
2019-03-18T14:09:53.709Z,71.10
2019-03-18T14:12:23.573Z,70.85
2019-03-18T14:14:53.407Z,70.76
2019-03-18T14:17:23.615Z,69.57
2019-03-18T14:19:54.646Z,69.15
2019-03-18T14:22:25.147Z,69.10
2019-03-18T14:24:55.386Z,68.02
2019-03-18T14:27:25.296Z,68.65
2019-03-18T14:29:55.120Z,67.97
2019-03-18T14:32:26.356Z,66.48
2019-03-18T14:34:56.260Z,65.03
2019-03-18T14:37:26.126Z,63.18
2019-03-18T14:39:56.701Z,62.20
2019-03-18T14:42:26.937Z,59.86
2019-03-18T14:44:56.802Z,59.75
2019-03-18T14:47:26.680Z,58.25
2019-03-18T14:49:56.876Z,57.37
2019-03-18T14:52:26.829Z,56.15
2019-03-18T14:54:56.712Z,55.64
2019-03-18T14:57:26.527Z,56.10
2019-03-18T14:59:56.506Z,55.21
2019-03-18T15:02:26.448Z,54.65
2019-03-18T15:04:56.317Z,55.44
2019-03-18T15:07:26.192Z,55.46
2019-03-18T15:09:56.153Z,55.57
2019-03-18T15:12:26.060Z,56.97
2019-03-18T15:14:55.955Z,56.99
2019-03-18T15:17:26.128Z,56.83
2019-03-18T15:19:56.072Z,57.66
2019-03-18T15:22:26.016Z,58.08
2019-03-18T15:24:56.071Z,58.40
2019-03-18T15:27:25.872Z,57.38
2019-03-18T15:29:55.909Z,57.69
2019-03-18T15:32:26.040Z,57.78
2019-03-18T15:34:55.905Z,57.91
2019-03-18T15:37:25.866Z,59.55
2019-03-18T15:39:55.710Z,60.04
2019-03-18T15:42:26.290Z,60.55
2019-03-18T15:44:56.586Z,61.63
2019-03-18T15:47:26.979Z,62.01
2019-03-18T15:49:57.280Z,61.74
2019-03-18T15:52:27.209Z,62.00
2019-03-18T15:54:57.748Z,61.58
2019-03-18T15:57:30.139Z,61.41
2019-03-18T16:00:00.379Z,60.92
2019-03-18T16:02:30.342Z,59.18
2019-03-18T16:05:00.274Z,58.64
2019-03-18T16:07:30.288Z,58.91
2019-03-18T16:10:00.349Z,58.57
2019-03-18T16:12:30.600Z,59.11
2019-03-18T16:15:00.460Z,58.01
2019-03-18T16:17:30.651Z,55.91
2019-03-18T16:20:00.463Z,56.56
2019-03-18T16:22:31.502Z,57.05
2019-03-18T16:25:01.365Z,55.95
2019-03-18T16:27:31.592Z,54.89
2019-03-18T16:30:03.826Z,55.67
2019-03-18T16:32:32.883Z,55.16
2019-03-18T16:35:02.812Z,55.31
2019-03-18T16:37:32.732Z,55.72
2019-03-18T16:40:02.668Z,55.28
2019-03-18T16:42:32.720Z,54.59
2019-03-18T16:45:02.605Z,54.11
2019-03-18T16:47:33.091Z,54.28
2019-03-18T16:50:03.378Z,53.55
2019-03-18T16:52:36.142Z,54.39
2019-03-18T16:55:05.247Z,54.94
2019-03-18T16:57:35.823Z,56.56
2019-03-18T17:00:06.245Z,56.34
2019-03-18T17:02:36.161Z,56.30
2019-03-18T17:05:06.666Z,56.91
2019-03-18T17:07:38.663Z,56.66
2019-03-18T17:10:09.111Z,56.99
2019-03-18T17:12:39.096Z,57.46
2019-03-18T17:15:09.686Z,58.33
2019-03-18T17:17:40.029Z,57.71
2019-03-18T17:20:11.136Z,58.52
2019-03-18T17:22:49.021Z,59.21
2019-03-18T17:25:15.056Z,58.61
2019-03-18T17:27:45.133Z,59.30
2019-03-18T17:30:16.757Z,59.06
2019-03-18T17:32:46.745Z,58.85
2019-03-18T17:35:17.769Z,58.81
2019-03-18T17:37:48.358Z,58.45
2019-03-18T17:40:18.435Z,58.92
2019-03-18T17:42:49.838Z,58.84
2019-03-18T17:45:20.016Z,59.35
2019-03-18T17:47:50.140Z,59.20
2019-03-18T17:50:20.215Z,59.45
2019-03-18T17:53:01.659Z,60.11
2019-03-18T17:55:22.297Z,60.68
2019-03-18T17:57:52.257Z,60.79
2019-03-18T18:00:25.326Z,61.00
2019-03-18T18:02:55.238Z,60.87
2019-03-18T18:05:25.113Z,61.31
2019-03-18T18:07:55.125Z,61.69
2019-03-18T18:10:25.032Z,62.30
2019-03-18T18:12:54.988Z,62.98
2019-03-18T18:15:24.934Z,63.41
2019-03-18T18:17:54.836Z,63.66
2019-03-18T18:20:24.864Z,64.15
2019-03-18T18:22:55.175Z,64.57
2019-03-18T18:25:25.164Z,64.98
2019-03-18T18:27:55.487Z,65.11
2019-03-18T18:30:25.471Z,65.36
2019-03-18T18:32:55.775Z,66.15
2019-03-18T18:35:25.730Z,66.66
2019-03-18T18:37:55.622Z,66.81
2019-03-18T18:40:26.015Z,67.13
2019-03-18T18:42:55.939Z,67.54
2019-03-18T18:45:25.902Z,67.71
2019-03-18T18:47:55.769Z,67.55
2019-03-18T18:50:25.635Z,67.93
2019-03-18T18:52:55.501Z,68.06
2019-03-18T18:55:25.417Z,68.33
2019-03-18T18:57:55.909Z,68.75
2019-03-18T19:00:25.897Z,69.24
2019-03-18T19:02:55.873Z,69.14
2019-03-18T19:05:25.804Z,69.20
2019-03-18T19:07:57.574Z,69.28
2019-03-18T19:10:29.088Z,69.87
2019-03-18T19:12:59.010Z,69.94
2019-03-18T19:15:29.041Z,69.57
2019-03-18T19:17:59.045Z,70.23
2019-03-18T19:20:29.007Z,70.28
2019-03-18T19:22:58.964Z,70.97
2019-03-18T19:25:28.780Z,71.22
2019-03-18T19:27:59.078Z,71.56
2019-03-18T19:30:29.017Z,72.10
2019-03-18T19:32:59.320Z,72.09
2019-03-18T19:35:29.193Z,71.75
2019-03-18T19:38:00.574Z,71.63
2019-03-18T19:40:30.501Z,71.83
2019-03-18T19:43:00.918Z,71.96
2019-03-18T19:45:30.877Z,72.51
2019-03-18T19:48:00.844Z,72.78
2019-03-18T19:50:31.205Z,72.12
2019-03-18T19:53:01.181Z,71.58
2019-03-18T19:55:31.523Z,70.46
2019-03-18T19:58:03.307Z,70.80
2019-03-18T20:00:33.283Z,70.80
2019-03-18T20:03:03.211Z,70.64
2019-03-18T20:05:33.208Z,70.67
2019-03-18T20:08:03.544Z,70.31
2019-03-18T20:10:34.558Z,70.17
2019-03-18T20:13:05.043Z,69.68
2019-03-18T20:15:35.880Z,69.72
2019-03-18T20:18:05.848Z,70.03
2019-03-18T20:20:35.819Z,70.26
2019-03-18T20:23:05.761Z,70.23
2019-03-18T20:25:36.152Z,70.05
2019-03-18T20:28:06.172Z,70.13
2019-03-18T20:30:36.101Z,70.45
2019-03-18T20:33:06.046Z,69.46
2019-03-18T20:35:36.289Z,69.55
2019-03-18T20:38:06.232Z,69.42
2019-03-18T20:40:36.418Z,69.41
2019-03-18T20:43:06.409Z,69.83
2019-03-18T20:45:36.270Z,69.47
2019-03-18T20:48:06.330Z,69.62
2019-03-18T20:50:36.375Z,69.17
2019-03-18T20:53:06.349Z,69.25
2019-03-18T20:55:36.222Z,69.54
2019-03-18T20:58:06.185Z,70.19
2019-03-18T21:00:36.121Z,70.17
2019-03-18T21:03:06.280Z,70.32
2019-03-18T21:05:36.303Z,70.80
2019-03-18T21:08:06.299Z,70.37
2019-03-18T21:10:36.171Z,70.43
2019-03-18T21:13:06.455Z,70.17
2019-03-18T21:15:36.473Z,69.95
2019-03-18T21:18:06.679Z,70.30
2019-03-18T21:20:36.911Z,70.45
2019-03-18T21:23:06.837Z,70.39
2019-03-18T21:25:36.945Z,70.80
2019-03-18T21:28:06.860Z,70.85
2019-03-18T21:30:36.842Z,70.75
2019-03-18T21:33:06.870Z,70.79
2019-03-18T21:35:36.835Z,71.19
2019-03-18T21:38:06.849Z,71.48
2019-03-18T21:40:37.053Z,71.98
2019-03-18T21:43:07.289Z,72.46
2019-03-18T21:45:37.602Z,73.04
2019-03-18T21:48:07.641Z,73.23
2019-03-18T21:50:37.622Z,73.35
2019-03-18T21:53:07.608Z,73.15
2019-03-18T21:55:37.550Z,73.43
2019-03-18T21:58:09.324Z,73.24
2019-03-18T22:00:39.183Z,73.34
2019-03-18T22:03:09.150Z,73.73
2019-03-18T22:05:39.372Z,73.86
2019-03-18T22:08:09.679Z,73.66
2019-03-18T22:10:39.625Z,73.30
2019-03-18T22:13:09.599Z,73.16
2019-03-18T22:15:39.542Z,73.21
2019-03-18T22:18:09.431Z,73.43
2019-03-18T22:20:40.624Z,73.84
2019-03-18T22:23:12.136Z,74.10
2019-03-18T22:25:42.024Z,74.22
2019-03-18T22:28:11.874Z,74.61
2019-03-18T22:30:42.085Z,74.67
2019-03-18T22:33:12.103Z,74.92
2019-03-18T22:35:41.972Z,74.93
2019-03-18T22:38:11.889Z,74.94
2019-03-18T22:40:42.896Z,74.95
2019-03-18T22:43:13.137Z,75.10
2019-03-18T22:45:43.078Z,75.32
2019-03-18T22:48:12.945Z,75.56
2019-03-18T22:50:42.899Z,75.71
2019-03-18T22:53:12.753Z,75.85
2019-03-18T22:55:42.674Z,75.82
2019-03-18T22:58:12.530Z,76.01
2019-03-18T23:00:46.867Z,76.03
2019-03-18T23:03:17.216Z,75.98
2019-03-18T23:05:47.079Z,76.18
2019-03-18T23:08:17.048Z,76.39
2019-03-18T23:10:47.263Z,76.45
2019-03-18T23:13:17.046Z,76.74
2019-03-18T23:15:48.090Z,76.82
2019-03-18T23:18:18.019Z,76.84
2019-03-18T23:20:48.253Z,77.25
2019-03-18T23:23:20.404Z,77.20
2019-03-18T23:25:50.178Z,77.33
2019-03-18T23:28:20.089Z,76.99
2019-03-18T23:30:50.380Z,76.89
2019-03-18T23:33:21.015Z,76.84
2019-03-18T23:35:51.918Z,77.07
2019-03-18T23:38:22.191Z,77.32
2019-03-18T23:40:52.408Z,77.55
2019-03-18T23:43:22.401Z,77.83
2019-03-18T23:45:52.312Z,77.50
2019-03-18T23:48:22.213Z,77.18
2019-03-18T23:50:52.047Z,77.17
2019-03-18T23:53:21.963Z,77.40
2019-03-18T23:55:51.966Z,77.57
2019-03-18T23:58:22.162Z,77.68
